APL weather

Nampula Airport
Nampula, Nampula Province, Mozambique

Public forecast

Using degrees Celsius for public forecast. Weather courtesy of forecast.io.

METAR (pilot weather report)

Retrieved 2019/07/21 01:00 UTC (24 minutes ago):

FQNP 210100Z 01004KT CAVOK 17/15 Q1018

TAF (pilot weather forecast)

Forecast is more than 12 hours old.

Retrieved 2019/07/20 00:00 UTC (1 day ago):

TAF FQNP 202200Z 2100/2206 23006KT CAVOK TX25/2113Z TN15/2103Z PROB30 TEMPO 2102/2106 5000 BR FEW015 BECMG 2106/2108 19012KT 9999 FEW025 BECMG 2118/2120 23012KT BKN020 BECMG 2203/2205 16010KT FEW025